sensor_id;sensor_type;location;lat;lon;timestamp;P1;durP1;ratioP1;P2;durP2;ratioP2
10894;SDS011;5500;49.886;8.074;2023-03-05T00:01:05;17.07;;;12.83;;
10894;SDS011;5500;49.886;8.074;2023-03-05T00:03:34;21.23;;;13.33;;
10894;SDS011;5500;49.886;8.074;2023-03-05T00:06:04;21.13;;;12.80;;
10894;SDS011;5500;49.886;8.074;2023-03-05T00:08:33;16.07;;;12.87;;
10894;SDS011;5500;49.886;8.074;2023-03-05T00:11:01;18.93;;;13.77;;
10894;SDS011;5500;49.886;8.074;2023-03-05T00:13:31;17.97;;;14.13;;
10894;SDS011;5500;49.886;8.074;2023-03-05T00:16:00;19.00;;;14.20;;
10894;SDS011;5500;49.886;8.074;2023-03-05T00:18:29;20.93;;;14.13;;
10894;SDS011;5500;49.886;8.074;2023-03-05T00:20:56;18.90;;;13.90;;
10894;SDS011;5500;49.886;8.074;2023-03-05T00:23:25;17.63;;;13.33;;
10894;SDS011;5500;49.886;8.074;2023-03-05T00:25:53;21.80;;;14.13;;
10894;SDS011;5500;49.886;8.074;2023-03-05T00:28:21;19.27;;;14.20;;
10894;SDS011;5500;49.886;8.074;2023-03-05T00:30:49;18.40;;;12.63;;
10894;SDS011;5500;49.886;8.074;2023-03-05T00:33:16;17.73;;;14.37;;
10894;SDS011;5500;49.886;8.074;2023-03-05T00:35:44;20.73;;;14.10;;
10894;SDS011;5500;49.886;8.074;2023-03-05T00:38:12;19.27;;;13.77;;
10894;SDS011;5500;49.886;8.074;2023-03-05T00:40:41;19.63;;;13.93;;
10894;SDS011;5500;49.886;8.074;2023-03-05T00:43:09;17.53;;;13.73;;
10894;SDS011;5500;49.886;8.074;2023-03-05T00:45:37;18.70;;;14.43;;
10894;SDS011;5500;49.886;8.074;2023-03-05T00:48:04;20.13;;;14.90;;
10894;SDS011;5500;49.886;8.074;2023-03-05T00:50:32;23.10;;;14.47;;
10894;SDS011;5500;49.886;8.074;2023-03-05T00:53:00;22.17;;;14.67;;
10894;SDS011;5500;49.886;8.074;2023-03-05T00:55:28;20.40;;;14.63;;
10894;SDS011;5500;49.886;8.074;2023-03-05T00:57:56;23.77;;;15.07;;
10894;SDS011;5500;49.886;8.074;2023-03-05T01:00:24;18.27;;;13.30;;
10894;SDS011;5500;49.886;8.074;2023-03-05T01:02:52;20.83;;;14.03;;
10894;SDS011;5500;49.886;8.074;2023-03-05T01:05:19;22.87;;;14.70;;
10894;SDS011;5500;49.886;8.074;2023-03-05T01:07:47;19.90;;;13.57;;
10894;SDS011;5500;49.886;8.074;2023-03-05T01:10:14;20.77;;;14.67;;
10894;SDS011;5500;49.886;8.074;2023-03-05T01:12:42;22.37;;;14.07;;
10894;SDS011;5500;49.886;8.074;2023-03-05T01:15:14;22.63;;;14.90;;
10894;SDS011;5500;49.886;8.074;2023-03-05T01:17:42;22.17;;;14.47;;
10894;SDS011;5500;49.886;8.074;2023-03-05T01:20:11;17.93;;;13.27;;
10894;SDS011;5500;49.886;8.074;2023-03-05T01:22:39;21.83;;;14.17;;
10894;SDS011;5500;49.886;8.074;2023-03-05T01:25:07;18.60;;;13.97;;
10894;SDS011;5500;49.886;8.074;2023-03-05T01:27:35;19.73;;;14.10;;
10894;SDS011;5500;49.886;8.074;2023-03-05T01:30:03;17.30;;;13.40;;
10894;SDS011;5500;49.886;8.074;2023-03-05T01:32:34;18.67;;;13.30;;
10894;SDS011;5500;49.886;8.074;2023-03-05T01:35:03;17.30;;;13.00;;
10894;SDS011;5500;49.886;8.074;2023-03-05T01:37:32;18.93;;;12.83;;
10894;SDS011;5500;49.886;8.074;2023-03-05T01:40:00;22.60;;;12.63;;
10894;SDS011;5500;49.886;8.074;2023-03-05T01:42:27;14.53;;;12.37;;
10894;SDS011;5500;49.886;8.074;2023-03-05T01:44:58;19.07;;;12.33;;
10894;SDS011;5500;49.886;8.074;2023-03-05T01:47:27;19.33;;;12.87;;
10894;SDS011;5500;49.886;8.074;2023-03-05T01:49:56;16.73;;;11.87;;
10894;SDS011;5500;49.886;8.074;2023-03-05T01:52:24;20.00;;;12.30;;
10894;SDS011;5500;49.886;8.074;2023-03-05T01:54:53;15.77;;;12.33;;
10894;SDS011;5500;49.886;8.074;2023-03-05T01:57:23;16.83;;;11.83;;
10894;SDS011;5500;49.886;8.074;2023-03-05T01:59:55;18.93;;;13.27;;
10894;SDS011;5500;49.886;8.074;2023-03-05T02:02:24;17.93;;;12.97;;
10894;SDS011;5500;49.886;8.074;2023-03-05T02:04:53;22.97;;;12.40;;
10894;SDS011;5500;49.886;8.074;2023-03-05T02:07:24;16.23;;;12.57;;
10894;SDS011;5500;49.886;8.074;2023-03-05T02:09:54;19.93;;;13.80;;
10894;SDS011;5500;49.886;8.074;2023-03-05T02:12:22;20.07;;;12.27;;
10894;SDS011;5500;49.886;8.074;2023-03-05T02:14:50;16.27;;;11.87;;
10894;SDS011;5500;49.886;8.074;2023-03-05T02:17:25;19.87;;;12.00;;
10894;SDS011;5500;49.886;8.074;2023-03-05T02:19:54;16.27;;;11.63;;
10894;SDS011;5500;49.886;8.074;2023-03-05T02:22:33;17.60;;;11.87;;
10894;SDS011;5500;49.886;8.074;2023-03-05T02:25:10;19.90;;;12.40;;
10894;SDS011;5500;49.886;8.074;2023-03-05T02:27:39;16.17;;;11.13;;
10894;SDS011;5500;49.886;8.074;2023-03-05T02:30:09;17.77;;;12.93;;
10894;SDS011;5500;49.886;8.074;2023-03-05T02:32:39;17.23;;;12.10;;
10894;SDS011;5500;49.886;8.074;2023-03-05T02:35:08;16.87;;;11.50;;
10894;SDS011;5500;49.886;8.074;2023-03-05T02:37:37;16.63;;;11.23;;
10894;SDS011;5500;49.886;8.074;2023-03-05T02:40:05;15.10;;;12.10;;
10894;SDS011;5500;49.886;8.074;2023-03-05T02:42:34;21.13;;;11.97;;
10894;SDS011;5500;49.886;8.074;2023-03-05T02:45:02;17.50;;;12.47;;
10894;SDS011;5500;49.886;8.074;2023-03-05T02:47:32;16.97;;;11.13;;
10894;SDS011;5500;49.886;8.074;2023-03-05T02:50:00;18.80;;;11.23;;
10894;SDS011;5500;49.886;8.074;2023-03-05T02:52:28;16.73;;;11.77;;
10894;SDS011;5500;49.886;8.074;2023-03-05T02:54:58;15.63;;;11.03;;
10894;SDS011;5500;49.886;8.074;2023-03-05T02:57:26;17.60;;;11.47;;
10894;SDS011;5500;49.886;8.074;2023-03-05T02:59:54;18.23;;;11.07;;
10894;SDS011;5500;49.886;8.074;2023-03-05T03:02:22;14.43;;;10.53;;
10894;SDS011;5500;49.886;8.074;2023-03-05T03:04:49;16.97;;;11.43;;
10894;SDS011;5500;49.886;8.074;2023-03-05T03:07:17;16.53;;;11.57;;
10894;SDS011;5500;49.886;8.074;2023-03-05T03:09:44;17.93;;;11.80;;
10894;SDS011;5500;49.886;8.074;2023-03-05T03:12:13;19.23;;;12.23;;
10894;SDS011;5500;49.886;8.074;2023-03-05T03:14:41;16.93;;;11.57;;
10894;SDS011;5500;49.886;8.074;2023-03-05T03:17:10;18.93;;;11.37;;
10894;SDS011;5500;49.886;8.074;2023-03-05T03:19:39;15.47;;;10.27;;
10894;SDS011;5500;49.886;8.074;2023-03-05T03:22:07;21.03;;;11.07;;
10894;SDS011;5500;49.886;8.074;2023-03-05T03:24:36;16.60;;;11.70;;
10894;SDS011;5500;49.886;8.074;2023-03-05T03:27:04;17.77;;;11.20;;
10894;SDS011;5500;49.886;8.074;2023-03-05T03:29:34;15.00;;;10.60;;
10894;SDS011;5500;49.886;8.074;2023-03-05T03:32:03;16.00;;;11.40;;
10894;SDS011;5500;49.886;8.074;2023-03-05T03:34:30;16.37;;;11.67;;
10894;SDS011;5500;49.886;8.074;2023-03-05T03:36:58;19.07;;;11.90;;
10894;SDS011;5500;49.886;8.074;2023-03-05T03:39:26;17.10;;;11.83;;
10894;SDS011;5500;49.886;8.074;2023-03-05T03:41:54;21.03;;;12.13;;
10894;SDS011;5500;49.886;8.074;2023-03-05T03:44:21;20.20;;;11.00;;
10894;SDS011;5500;49.886;8.074;2023-03-05T03:46:50;20.00;;;10.77;;
10894;SDS011;5500;49.886;8.074;2023-03-05T03:49:20;18.80;;;10.83;;
10894;SDS011;5500;49.886;8.074;2023-03-05T03:51:49;21.20;;;11.83;;
10894;SDS011;5500;49.886;8.074;2023-03-05T03:54:17;20.93;;;12.20;;
10894;SDS011;5500;49.886;8.074;2023-03-05T03:56:45;19.10;;;11.93;;
10894;SDS011;5500;49.886;8.074;2023-03-05T03:59:13;21.67;;;12.20;;
10894;SDS011;5500;49.886;8.074;2023-03-05T04:01:41;16.53;;;11.17;;
10894;SDS011;5500;49.886;8.074;2023-03-05T04:04:10;21.20;;;11.70;;
10894;SDS011;5500;49.886;8.074;2023-03-05T04:06:38;21.63;;;11.10;;
10894;SDS011;5500;49.886;8.074;2023-03-05T04:09:06;27.77;;;11.33;;
10894;SDS011;5500;49.886;8.074;2023-03-05T04:11:34;23.03;;;11.37;;
10894;SDS011;5500;49.886;8.074;2023-03-05T04:14:03;16.37;;;11.27;;
10894;SDS011;5500;49.886;8.074;2023-03-05T04:16:30;20.03;;;12.03;;
10894;SDS011;5500;49.886;8.074;2023-03-05T04:18:58;18.63;;;11.30;;
10894;SDS011;5500;49.886;8.074;2023-03-05T04:21:27;15.93;;;11.13;;
10894;SDS011;5500;49.886;8.074;2023-03-05T04:23:55;19.33;;;10.97;;
10894;SDS011;5500;49.886;8.074;2023-03-05T04:26:23;20.80;;;11.87;;
10894;SDS011;5500;49.886;8.074;2023-03-05T04:28:51;20.03;;;11.10;;
10894;SDS011;5500;49.886;8.074;2023-03-05T04:31:18;16.57;;;10.00;;
10894;SDS011;5500;49.886;8.074;2023-03-05T04:33:46;15.17;;;9.10;;
10894;SDS011;5500;49.886;8.074;2023-03-05T04:36:14;16.83;;;9.03;;
10894;SDS011;5500;49.886;8.074;2023-03-05T04:38:43;12.50;;;7.83;;
10894;SDS011;5500;49.886;8.074;2023-03-05T04:41:10;20.60;;;9.10;;
10894;SDS011;5500;49.886;8.074;2023-03-05T04:43:38;12.67;;;8.10;;
10894;SDS011;5500;49.886;8.074;2023-03-05T04:46:06;16.13;;;8.07;;
10894;SDS011;5500;49.886;8.074;2023-03-05T04:48:33;13.10;;;7.33;;
10894;SDS011;5500;49.886;8.074;2023-03-05T04:51:01;12.33;;;7.67;;
10894;SDS011;5500;49.886;8.074;2023-03-05T04:53:29;13.53;;;7.40;;
10894;SDS011;5500;49.886;8.074;2023-03-05T04:55:57;9.50;;;7.13;;
10894;SDS011;5500;49.886;8.074;2023-03-05T04:58:26;15.43;;;8.17;;
10894;SDS011;5500;49.886;8.074;2023-03-05T05:00:58;16.20;;;7.63;;
10894;SDS011;5500;49.886;8.074;2023-03-05T05:03:27;11.87;;;7.47;;
10894;SDS011;5500;49.886;8.074;2023-03-05T05:05:55;16.07;;;6.87;;
10894;SDS011;5500;49.886;8.074;2023-03-05T05:08:24;12.33;;;6.60;;
10894;SDS011;5500;49.886;8.074;2023-03-05T05:10:56;11.13;;;7.30;;
10894;SDS011;5500;49.886;8.074;2023-03-05T05:13:26;12.13;;;7.53;;
10894;SDS011;5500;49.886;8.074;2023-03-05T05:15:55;11.13;;;7.57;;
10894;SDS011;5500;49.886;8.074;2023-03-05T05:18:23;13.80;;;7.07;;
10894;SDS011;5500;49.886;8.074;2023-03-05T05:20:51;11.70;;;7.77;;
10894;SDS011;5500;49.886;8.074;2023-03-05T05:23:18;12.60;;;7.97;;
10894;SDS011;5500;49.886;8.074;2023-03-05T05:25:54;11.07;;;6.70;;
10894;SDS011;5500;49.886;8.074;2023-03-05T05:28:23;10.07;;;7.67;;
10894;SDS011;5500;49.886;8.074;2023-03-05T05:30:51;12.77;;;7.13;;
10894;SDS011;5500;49.886;8.074;2023-03-05T05:33:19;11.80;;;7.10;;
10894;SDS011;5500;49.886;8.074;2023-03-05T05:35:47;12.57;;;7.40;;
10894;SDS011;5500;49.886;8.074;2023-03-05T05:38:14;10.03;;;7.17;;
10894;SDS011;5500;49.886;8.074;2023-03-05T05:40:42;13.80;;;7.80;;
10894;SDS011;5500;49.886;8.074;2023-03-05T05:43:09;12.50;;;7.80;;
10894;SDS011;5500;49.886;8.074;2023-03-05T05:45:38;12.40;;;6.87;;
10894;SDS011;5500;49.886;8.074;2023-03-05T05:48:06;11.33;;;7.27;;
10894;SDS011;5500;49.886;8.074;2023-03-05T05:50:34;11.87;;;6.90;;
10894;SDS011;5500;49.886;8.074;2023-03-05T05:53:03;12.20;;;7.23;;
10894;SDS011;5500;49.886;8.074;2023-03-05T05:55:31;13.93;;;7.03;;
10894;SDS011;5500;49.886;8.074;2023-03-05T05:57:58;13.63;;;8.10;;
10894;SDS011;5500;49.886;8.074;2023-03-05T06:00:26;14.90;;;7.27;;
10894;SDS011;5500;49.886;8.074;2023-03-05T06:02:55;12.20;;;7.60;;
10894;SDS011;5500;49.886;8.074;2023-03-05T06:05:23;11.60;;;8.03;;
10894;SDS011;5500;49.886;8.074;2023-03-05T06:07:50;9.70;;;6.80;;
10894;SDS011;5500;49.886;8.074;2023-03-05T06:10:18;9.20;;;6.40;;
10894;SDS011;5500;49.886;8.074;2023-03-05T06:12:46;15.70;;;7.00;;
10894;SDS011;5500;49.886;8.074;2023-03-05T06:15:14;10.30;;;6.43;;
10894;SDS011;5500;49.886;8.074;2023-03-05T06:17:41;12.23;;;6.50;;
10894;SDS011;5500;49.886;8.074;2023-03-05T06:20:11;10.97;;;6.57;;
10894;SDS011;5500;49.886;8.074;2023-03-05T06:22:39;9.97;;;6.17;;
10894;SDS011;5500;49.886;8.074;2023-03-05T06:25:07;14.57;;;6.90;;
10894;SDS011;5500;49.886;8.074;2023-03-05T06:27:36;10.27;;;6.70;;
10894;SDS011;5500;49.886;8.074;2023-03-05T06:30:04;15.40;;;7.03;;
10894;SDS011;5500;49.886;8.074;2023-03-05T06:32:33;15.23;;;6.80;;
10894;SDS011;5500;49.886;8.074;2023-03-05T06:35:00;10.97;;;6.33;;
10894;SDS011;5500;49.886;8.074;2023-03-05T06:37:29;12.73;;;7.20;;
10894;SDS011;5500;49.886;8.074;2023-03-05T06:39:57;11.87;;;6.93;;
10894;SDS011;5500;49.886;8.074;2023-03-05T06:42:24;13.13;;;7.30;;
10894;SDS011;5500;49.886;8.074;2023-03-05T06:44:54;10.63;;;6.70;;
10894;SDS011;5500;49.886;8.074;2023-03-05T06:47:21;10.77;;;7.67;;
10894;SDS011;5500;49.886;8.074;2023-03-05T06:49:49;14.63;;;7.53;;
10894;SDS011;5500;49.886;8.074;2023-03-05T06:52:16;9.73;;;6.77;;
10894;SDS011;5500;49.886;8.074;2023-03-05T06:54:45;10.70;;;6.80;;
10894;SDS011;5500;49.886;8.074;2023-03-05T06:57:13;8.67;;;6.13;;
10894;SDS011;5500;49.886;8.074;2023-03-05T06:59:40;9.07;;;5.73;;
10894;SDS011;5500;49.886;8.074;2023-03-05T07:02:08;9.07;;;6.10;;
10894;SDS011;5500;49.886;8.074;2023-03-05T07:04:37;10.27;;;5.07;;
10894;SDS011;5500;49.886;8.074;2023-03-05T07:07:05;8.83;;;4.73;;
10894;SDS011;5500;49.886;8.074;2023-03-05T07:09:32;9.47;;;4.17;;
10894;SDS011;5500;49.886;8.074;2023-03-05T07:12:01;7.90;;;4.03;;
10894;SDS011;5500;49.886;8.074;2023-03-05T07:14:29;9.37;;;4.47;;
10894;SDS011;5500;49.886;8.074;2023-03-05T07:16:59;8.87;;;3.90;;
10894;SDS011;5500;49.886;8.074;2023-03-05T07:19:26;8.83;;;3.50;;
10894;SDS011;5500;49.886;8.074;2023-03-05T07:21:54;9.57;;;3.80;;
10894;SDS011;5500;49.886;8.074;2023-03-05T07:24:21;5.80;;;3.67;;
10894;SDS011;5500;49.886;8.074;2023-03-05T07:26:49;7.47;;;3.37;;
10894;SDS011;5500;49.886;8.074;2023-03-05T07:29:18;5.93;;;3.27;;
10894;SDS011;5500;49.886;8.074;2023-03-05T07:31:46;5.83;;;3.60;;
10894;SDS011;5500;49.886;8.074;2023-03-05T07:34:13;7.20;;;2.97;;
10894;SDS011;5500;49.886;8.074;2023-03-05T07:36:41;4.77;;;3.27;;
10894;SDS011;5500;49.886;8.074;2023-03-05T07:39:09;7.60;;;3.87;;
10894;SDS011;5500;49.886;8.074;2023-03-05T07:41:37;4.27;;;3.33;;
10894;SDS011;5500;49.886;8.074;2023-03-05T07:44:05;6.27;;;3.50;;
10894;SDS011;5500;49.886;8.074;2023-03-05T07:46:34;5.87;;;3.20;;
10894;SDS011;5500;49.886;8.074;2023-03-05T07:49:02;4.77;;;3.30;;
10894;SDS011;5500;49.886;8.074;2023-03-05T07:51:30;6.57;;;3.33;;
10894;SDS011;5500;49.886;8.074;2023-03-05T07:53:58;10.77;;;4.20;;
10894;SDS011;5500;49.886;8.074;2023-03-05T07:56:26;5.93;;;3.37;;
10894;SDS011;5500;49.886;8.074;2023-03-05T07:58:57;10.03;;;4.20;;
10894;SDS011;5500;49.886;8.074;2023-03-05T08:01:25;6.37;;;3.53;;
10894;SDS011;5500;49.886;8.074;2023-03-05T08:03:54;5.97;;;3.70;;
10894;SDS011;5500;49.886;8.074;2023-03-05T08:06:21;7.17;;;4.37;;
10894;SDS011;5500;49.886;8.074;2023-03-05T08:08:49;9.83;;;3.73;;
10894;SDS011;5500;49.886;8.074;2023-03-05T08:11:17;7.13;;;4.13;;
10894;SDS011;5500;49.886;8.074;2023-03-05T08:13:44;7.17;;;4.13;;
10894;SDS011;5500;49.886;8.074;2023-03-05T08:16:13;8.50;;;3.63;;
10894;SDS011;5500;49.886;8.074;2023-03-05T08:18:42;6.40;;;3.60;;
10894;SDS011;5500;49.886;8.074;2023-03-05T08:21:18;8.07;;;4.30;;
10894;SDS011;5500;49.886;8.074;2023-03-05T08:23:47;8.77;;;4.13;;
10894;SDS011;5500;49.886;8.074;2023-03-05T08:26:16;8.70;;;4.40;;
10894;SDS011;5500;49.886;8.074;2023-03-05T08:28:45;8.17;;;4.07;;
10894;SDS011;5500;49.886;8.074;2023-03-05T08:31:13;8.50;;;4.17;;
10894;SDS011;5500;49.886;8.074;2023-03-05T08:33:42;7.57;;;4.90;;
10894;SDS011;5500;49.886;8.074;2023-03-05T08:36:10;10.23;;;5.60;;
10894;SDS011;5500;49.886;8.074;2023-03-05T08:38:39;13.03;;;5.77;;
10894;SDS011;5500;49.886;8.074;2023-03-05T08:41:09;8.83;;;5.13;;
10894;SDS011;5500;49.886;8.074;2023-03-05T08:43:37;10.00;;;5.50;;
10894;SDS011;5500;49.886;8.074;2023-03-05T08:46:05;8.60;;;5.10;;
10894;SDS011;5500;49.886;8.074;2023-03-05T08:48:33;7.37;;;4.83;;
10894;SDS011;5500;49.886;8.074;2023-03-05T08:51:04;8.23;;;5.23;;
10894;SDS011;5500;49.886;8.074;2023-03-05T08:53:32;7.80;;;5.03;;
10894;SDS011;5500;49.886;8.074;2023-03-05T08:56:01;10.90;;;5.13;;
10894;SDS011;5500;49.886;8.074;2023-03-05T08:58:29;11.57;;;4.63;;
10894;SDS011;5500;49.886;8.074;2023-03-05T09:00:57;8.17;;;4.57;;
10894;SDS011;5500;49.886;8.074;2023-03-05T09:03:25;8.63;;;5.47;;
10894;SDS011;5500;49.886;8.074;2023-03-05T09:05:53;7.53;;;5.27;;
10894;SDS011;5500;49.886;8.074;2023-03-05T09:08:25;7.60;;;5.20;;
10894;SDS011;5500;49.886;8.074;2023-03-05T09:10:53;10.83;;;6.47;;
10894;SDS011;5500;49.886;8.074;2023-03-05T09:13:22;9.23;;;5.27;;
10894;SDS011;5500;49.886;8.074;2023-03-05T09:15:53;10.60;;;6.47;;
10894;SDS011;5500;49.886;8.074;2023-03-05T09:18:21;7.03;;;4.77;;
10894;SDS011;5500;49.886;8.074;2023-03-05T09:20:48;7.73;;;5.20;;
10894;SDS011;5500;49.886;8.074;2023-03-05T09:23:16;7.73;;;5.20;;
10894;SDS011;5500;49.886;8.074;2023-03-05T09:25:44;9.80;;;6.27;;
10894;SDS011;5500;49.886;8.074;2023-03-05T09:28:12;8.23;;;5.27;;
10894;SDS011;5500;49.886;8.074;2023-03-05T09:30:41;8.57;;;5.40;;
10894;SDS011;5500;49.886;8.074;2023-03-05T09:33:08;8.63;;;5.67;;
10894;SDS011;5500;49.886;8.074;2023-03-05T09:35:36;9.20;;;5.23;;
10894;SDS011;5500;49.886;8.074;2023-03-05T09:38:04;9.57;;;5.43;;
10894;SDS011;5500;49.886;8.074;2023-03-05T09:40:41;8.70;;;5.57;;
10894;SDS011;5500;49.886;8.074;2023-03-05T09:43:13;8.23;;;5.10;;
10894;SDS011;5500;49.886;8.074;2023-03-05T09:45:52;8.17;;;5.47;;
10894;SDS011;5500;49.886;8.074;2023-03-05T09:48:28;10.17;;;5.40;;
10894;SDS011;5500;49.886;8.074;2023-03-05T09:51:06;7.03;;;5.23;;
10894;SDS011;5500;49.886;8.074;2023-03-05T09:53:42;8.67;;;5.70;;
10894;SDS011;5500;49.886;8.074;2023-03-05T09:56:12;7.70;;;5.37;;
10894;SDS011;5500;49.886;8.074;2023-03-05T09:58:42;9.33;;;5.67;;
10894;SDS011;5500;49.886;8.074;2023-03-05T10:01:14;8.23;;;5.33;;
10894;SDS011;5500;49.886;8.074;2023-03-05T10:03:49;7.90;;;4.83;;
10894;SDS011;5500;49.886;8.074;2023-03-05T10:06:21;8.93;;;5.40;;
10894;SDS011;5500;49.886;8.074;2023-03-05T10:08:51;9.80;;;5.77;;
10894;SDS011;5500;49.886;8.074;2023-03-05T10:11:28;12.27;;;5.70;;
10894;SDS011;5500;49.886;8.074;2023-03-05T10:14:01;9.07;;;5.27;;
10894;SDS011;5500;49.886;8.074;2023-03-05T10:16:34;10.57;;;5.60;;
10894;SDS011;5500;49.886;8.074;2023-03-05T10:19:10;10.27;;;5.50;;
10894;SDS011;5500;49.886;8.074;2023-03-05T10:21:41;8.93;;;5.47;;
10894;SDS011;5500;49.886;8.074;2023-03-05T10:24:15;10.03;;;5.63;;
10894;SDS011;5500;49.886;8.074;2023-03-05T10:26:55;9.70;;;5.57;;
10894;SDS011;5500;49.886;8.074;2023-03-05T10:29:33;10.20;;;5.33;;
10894;SDS011;5500;49.886;8.074;2023-03-05T10:32:11;7.53;;;4.43;;
10894;SDS011;5500;49.886;8.074;2023-03-05T10:35:03;6.70;;;4.73;;
10894;SDS011;5500;49.886;8.074;2023-03-05T10:40:30;7.23;;;4.37;;
10894;SDS011;5500;49.886;8.074;2023-03-05T10:43:05;11.60;;;4.43;;
10894;SDS011;5500;49.886;8.074;2023-03-05T10:45:38;9.90;;;4.77;;
10894;SDS011;5500;49.886;8.074;2023-03-05T10:48:11;7.27;;;4.17;;
10894;SDS011;5500;49.886;8.074;2023-03-05T10:50:43;8.97;;;4.27;;
10894;SDS011;5500;49.886;8.074;2023-03-05T10:53:14;7.73;;;4.13;;
10894;SDS011;5500;49.886;8.074;2023-03-05T10:55:44;5.30;;;3.60;;
10894;SDS011;5500;49.886;8.074;2023-03-05T10:58:12;5.57;;;3.70;;
10894;SDS011;5500;49.886;8.074;2023-03-05T11:00:56;6.13;;;3.80;;
10894;SDS011;5500;49.886;8.074;2023-03-05T11:06:14;8.63;;;4.40;;
10894;SDS011;5500;49.886;8.074;2023-03-05T11:08:42;9.43;;;4.23;;
10894;SDS011;5500;49.886;8.074;2023-03-05T11:11:11;6.93;;;3.73;;
10894;SDS011;5500;49.886;8.074;2023-03-05T11:13:43;8.23;;;4.40;;
10894;SDS011;5500;49.886;8.074;2023-03-05T11:16:18;7.67;;;4.27;;
10894;SDS011;5500;49.886;8.074;2023-03-05T11:18:48;7.40;;;4.50;;
10894;SDS011;5500;49.886;8.074;2023-03-05T11:21:18;6.90;;;3.63;;
10894;SDS011;5500;49.886;8.074;2023-03-05T11:24:05;5.93;;;4.30;;
10894;SDS011;5500;49.886;8.074;2023-03-05T11:26:35;6.53;;;4.47;;
10894;SDS011;5500;49.886;8.074;2023-03-05T11:29:02;5.10;;;3.80;;
10894;SDS011;5500;49.886;8.074;2023-03-05T11:31:36;6.73;;;4.17;;
10894;SDS011;5500;49.886;8.074;2023-03-05T11:34:06;7.07;;;4.13;;
10894;SDS011;5500;49.886;8.074;2023-03-05T11:36:39;5.43;;;3.83;;
10894;SDS011;5500;49.886;8.074;2023-03-05T11:39:09;6.23;;;4.00;;
10894;SDS011;5500;49.886;8.074;2023-03-05T11:41:38;6.33;;;4.00;;
10894;SDS011;5500;49.886;8.074;2023-03-05T11:44:09;7.27;;;4.30;;
10894;SDS011;5500;49.886;8.074;2023-03-05T11:46:40;7.77;;;4.60;;
10894;SDS011;5500;49.886;8.074;2023-03-05T11:49:13;5.57;;;4.03;;
10894;SDS011;5500;49.886;8.074;2023-03-05T11:51:43;9.53;;;4.43;;
10894;SDS011;5500;49.886;8.074;2023-03-05T11:54:15;7.27;;;3.77;;
10894;SDS011;5500;49.886;8.074;2023-03-05T11:56:46;5.97;;;3.30;;
10894;SDS011;5500;49.886;8.074;2023-03-05T11:59:15;5.37;;;3.57;;
10894;SDS011;5500;49.886;8.074;2023-03-05T12:01:44;5.60;;;3.53;;
10894;SDS011;5500;49.886;8.074;2023-03-05T12:04:14;6.37;;;3.87;;
10894;SDS011;5500;49.886;8.074;2023-03-05T12:06:43;5.93;;;3.80;;
10894;SDS011;5500;49.886;8.074;2023-03-05T12:09:14;6.17;;;3.93;;
10894;SDS011;5500;49.886;8.074;2023-03-05T12:11:46;6.27;;;4.60;;
10894;SDS011;5500;49.886;8.074;2023-03-05T12:14:16;5.70;;;3.97;;
10894;SDS011;5500;49.886;8.074;2023-03-05T12:16:47;8.80;;;4.60;;
10894;SDS011;5500;49.886;8.074;2023-03-05T12:22:15;5.20;;;3.60;;
10894;SDS011;5500;49.886;8.074;2023-03-05T12:24:44;6.73;;;4.20;;
10894;SDS011;5500;49.886;8.074;2023-03-05T12:27:13;8.43;;;3.97;;
10894;SDS011;5500;49.886;8.074;2023-03-05T12:29:43;5.40;;;3.83;;
10894;SDS011;5500;49.886;8.074;2023-03-05T12:35:30;6.73;;;4.33;;
10894;SDS011;5500;49.886;8.074;2023-03-05T12:38:02;6.43;;;3.40;;
10894;SDS011;5500;49.886;8.074;2023-03-05T12:40:51;5.80;;;3.83;;
10894;SDS011;5500;49.886;8.074;2023-03-05T12:43:29;4.63;;;3.43;;
10894;SDS011;5500;49.886;8.074;2023-03-05T12:48:51;5.93;;;3.60;;
10894;SDS011;5500;49.886;8.074;2023-03-05T12:51:36;6.20;;;3.37;;
10894;SDS011;5500;49.886;8.074;2023-03-05T12:56:54;4.17;;;2.83;;
10894;SDS011;5500;49.886;8.074;2023-03-05T12:59:23;4.70;;;3.17;;
10894;SDS011;5500;49.886;8.074;2023-03-05T13:01:56;6.17;;;3.60;;
10894;SDS011;5500;49.886;8.074;2023-03-05T13:04:26;3.60;;;2.90;;
10894;SDS011;5500;49.886;8.074;2023-03-05T13:07:00;4.17;;;2.97;;
10894;SDS011;5500;49.886;8.074;2023-03-05T13:09:29;4.33;;;3.20;;
10894;SDS011;5500;49.886;8.074;2023-03-05T13:12:00;4.03;;;3.50;;
10894;SDS011;5500;49.886;8.074;2023-03-05T13:14:32;5.53;;;3.53;;
10894;SDS011;5500;49.886;8.074;2023-03-05T13:17:02;4.53;;;3.37;;
10894;SDS011;5500;49.886;8.074;2023-03-05T13:19:52;4.53;;;3.73;;
10894;SDS011;5500;49.886;8.074;2023-03-05T13:22:20;5.67;;;3.50;;
10894;SDS011;5500;49.886;8.074;2023-03-05T13:25:02;6.07;;;3.57;;
10894;SDS011;5500;49.886;8.074;2023-03-05T13:27:31;5.47;;;3.30;;
10894;SDS011;5500;49.886;8.074;2023-03-05T13:30:00;7.53;;;4.43;;
10894;SDS011;5500;49.886;8.074;2023-03-05T13:32:30;6.27;;;3.90;;
10894;SDS011;5500;49.886;8.074;2023-03-05T13:34:59;7.97;;;4.10;;
10894;SDS011;5500;49.886;8.074;2023-03-05T13:37:28;5.73;;;3.97;;
10894;SDS011;5500;49.886;8.074;2023-03-05T13:39:58;5.40;;;3.53;;
10894;SDS011;5500;49.886;8.074;2023-03-05T13:42:27;18.80;;;9.87;;
10894;SDS011;5500;49.886;8.074;2023-03-05T13:44:58;9.73;;;5.37;;
10894;SDS011;5500;49.886;8.074;2023-03-05T13:47:29;6.53;;;3.90;;
10894;SDS011;5500;49.886;8.074;2023-03-05T13:49:59;17.77;;;9.30;;
10894;SDS011;5500;49.886;8.074;2023-03-05T13:52:32;16.37;;;9.57;;
10894;SDS011;5500;49.886;8.074;2023-03-05T13:55:01;31.57;;;14.77;;
10894;SDS011;5500;49.886;8.074;2023-03-05T13:57:32;9.13;;;4.97;;
10894;SDS011;5500;49.886;8.074;2023-03-05T14:00:03;6.07;;;4.00;;
10894;SDS011;5500;49.886;8.074;2023-03-05T14:02:33;5.77;;;3.77;;
10894;SDS011;5500;49.886;8.074;2023-03-05T14:05:00;6.60;;;4.30;;
10894;SDS011;5500;49.886;8.074;2023-03-05T14:07:30;8.03;;;3.90;;
10894;SDS011;5500;49.886;8.074;2023-03-05T14:09:59;6.93;;;4.20;;
10894;SDS011;5500;49.886;8.074;2023-03-05T14:12:29;6.43;;;4.07;;
10894;SDS011;5500;49.886;8.074;2023-03-05T14:15:01;8.17;;;5.47;;
10894;SDS011;5500;49.886;8.074;2023-03-05T14:17:40;9.00;;;6.17;;
10894;SDS011;5500;49.886;8.074;2023-03-05T14:20:16;8.00;;;5.20;;
10894;SDS011;5500;49.886;8.074;2023-03-05T14:22:48;7.63;;;5.77;;
10894;SDS011;5500;49.886;8.074;2023-03-05T14:28:06;8.73;;;7.27;;
10894;SDS011;5500;49.886;8.074;2023-03-05T14:30:43;4.63;;;3.90;;
10894;SDS011;5500;49.886;8.074;2023-03-05T14:33:13;8.57;;;5.27;;
10894;SDS011;5500;49.886;8.074;2023-03-05T14:35:45;5.80;;;3.53;;
10894;SDS011;5500;49.886;8.074;2023-03-05T14:38:15;7.97;;;5.40;;
10894;SDS011;5500;49.886;8.074;2023-03-05T14:40:50;7.33;;;4.50;;
10894;SDS011;5500;49.886;8.074;2023-03-05T14:43:18;7.47;;;5.20;;
10894;SDS011;5500;49.886;8.074;2023-03-05T14:45:46;7.30;;;5.17;;
10894;SDS011;5500;49.886;8.074;2023-03-05T14:48:16;8.13;;;4.93;;
10894;SDS011;5500;49.886;8.074;2023-03-05T14:50:45;11.13;;;6.37;;
10894;SDS011;5500;49.886;8.074;2023-03-05T14:53:17;18.10;;;10.17;;
10894;SDS011;5500;49.886;8.074;2023-03-05T14:55:46;22.13;;;10.20;;
10894;SDS011;5500;49.886;8.074;2023-03-05T14:58:16;11.27;;;6.27;;
10894;SDS011;5500;49.886;8.074;2023-03-05T15:00:46;11.17;;;6.63;;
10894;SDS011;5500;49.886;8.074;2023-03-05T15:03:18;12.33;;;6.93;;
10894;SDS011;5500;49.886;8.074;2023-03-05T15:05:47;14.60;;;8.97;;
10894;SDS011;5500;49.886;8.074;2023-03-05T15:08:17;6.23;;;4.73;;
10894;SDS011;5500;49.886;8.074;2023-03-05T15:10:46;7.40;;;5.37;;
10894;SDS011;5500;49.886;8.074;2023-03-05T15:13:14;6.40;;;4.67;;
10894;SDS011;5500;49.886;8.074;2023-03-05T15:15:42;10.80;;;4.83;;
10894;SDS011;5500;49.886;8.074;2023-03-05T15:18:11;8.53;;;4.40;;
10894;SDS011;5500;49.886;8.074;2023-03-05T15:20:40;6.80;;;4.10;;
10894;SDS011;5500;49.886;8.074;2023-03-05T15:23:08;8.37;;;5.90;;
10894;SDS011;5500;49.886;8.074;2023-03-05T15:25:35;11.43;;;6.43;;